createdAt,value
2018-06-20T18:44:48.573Z,25.78
2018-06-20T18:47:01.399Z,25.75
2018-06-20T18:51:05.487Z,25.53
2018-06-20T18:52:05.404Z,25.55
2018-06-20T18:53:05.380Z,25.53
2018-06-20T18:57:06.774Z,25.51
2018-06-20T18:57:46.433Z,25.53
2018-06-20T18:58:46.433Z,25.53
2018-06-20T18:59:45.651Z,25.43
2018-06-20T19:00:45.629Z,25.43
2018-06-20T19:01:45.590Z,25.44
2018-06-20T19:02:45.559Z,25.40
2018-06-20T19:03:45.533Z,25.43
2018-06-20T19:04:45.506Z,25.40
2018-06-20T19:05:45.479Z,25.38
2018-06-20T19:06:45.459Z,25.36
2018-06-20T19:07:45.420Z,25.26
2018-06-20T19:08:45.390Z,25.23
2018-06-20T19:09:45.360Z,25.23
2018-06-20T19:10:45.332Z,25.17
2018-06-20T19:11:45.303Z,25.16
2018-06-20T19:12:45.273Z,25.14
2018-06-20T19:13:45.245Z,25.21
2018-06-20T19:14:45.216Z,25.04
2018-06-20T19:15:45.197Z,25.01
2018-06-20T19:16:45.161Z,25.07
2018-06-20T19:17:45.132Z,25.04
2018-06-20T19:18:45.097Z,24.92
2018-06-20T19:19:45.074Z,24.93
2018-06-20T19:20:45.055Z,24.92
2018-06-20T19:21:45.018Z,24.88
2018-06-20T19:22:44.988Z,24.84
2018-06-20T19:23:44.958Z,24.84
2018-06-20T19:24:44.928Z,24.85
2018-06-20T19:25:44.902Z,24.73
2018-06-20T19:26:44.873Z,24.74
2018-06-20T19:27:44.844Z,24.68
2018-06-20T19:28:44.813Z,24.68
2018-06-20T19:29:44.788Z,24.63
2018-06-20T19:30:44.753Z,24.48
2018-06-20T19:31:44.721Z,24.55
2018-06-20T19:32:44.694Z,24.47
2018-06-20T19:33:44.669Z,24.47
2018-06-20T19:34:44.632Z,24.40
2018-06-20T19:35:44.614Z,24.42
2018-06-20T19:36:44.581Z,24.43
2018-06-20T19:37:44.550Z,24.36
2018-06-20T19:38:44.550Z,24.36
2018-06-20T19:39:44.493Z,24.35
2018-06-20T19:40:44.461Z,24.35
2018-06-20T19:41:44.432Z,24.32
2018-06-20T19:42:44.405Z,24.30
2018-06-20T19:43:44.381Z,24.30
2018-06-20T19:44:44.420Z,24.29
2018-06-20T19:45:44.315Z,24.26
2018-06-20T19:46:44.302Z,24.17
2018-06-20T19:47:44.275Z,24.16
2018-06-20T19:48:44.243Z,24.13
2018-06-20T19:49:44.198Z,24.08
2018-06-20T19:50:44.168Z,24.11
2018-06-20T19:51:44.206Z,24.13
2018-06-20T19:52:44.109Z,24.03
2018-06-20T19:53:44.080Z,24.05
2018-06-20T19:54:44.072Z,24.06
2018-06-20T19:55:44.022Z,24.08
2018-06-20T19:56:43.993Z,24.06
2018-06-20T19:57:43.961Z,24.02
2018-06-20T19:58:43.933Z,24.02
2018-06-20T19:59:43.905Z,24.02
2018-06-20T20:00:43.883Z,24.01
2018-06-20T20:01:43.845Z,24.08
2018-06-20T20:02:43.853Z,24.02
2018-06-20T20:03:43.787Z,23.91
2018-06-20T20:04:43.755Z,23.95
2018-06-20T20:05:43.727Z,23.92
2018-06-20T20:06:43.724Z,23.93
2018-06-20T20:07:43.668Z,23.83
2018-06-20T20:08:43.639Z,23.80
2018-06-20T20:09:43.609Z,23.66
2018-06-20T20:10:43.579Z,23.68
2018-06-20T20:11:43.550Z,23.59
2018-06-20T20:12:43.519Z,23.43
2018-06-20T20:13:43.489Z,23.41
2018-06-20T20:14:43.461Z,23.43
2018-06-20T20:15:43.431Z,23.31
2018-06-20T20:16:43.393Z,23.31
2018-06-20T20:17:43.363Z,23.21
2018-06-20T20:18:43.342Z,23.34
2018-06-20T20:19:43.312Z,23.20
2018-06-20T20:20:43.282Z,23.25
2018-06-20T20:21:43.254Z,23.09
2018-06-20T20:22:43.216Z,23.23
2018-06-20T20:23:43.191Z,23.23
2018-06-20T20:24:43.167Z,23.13
2018-06-20T20:25:43.131Z,23.05
2018-06-20T20:26:43.102Z,23.05
2018-06-20T20:27:43.072Z,22.94
2018-06-20T20:28:43.042Z,23.02
2018-06-20T20:29:43.010Z,22.94
2018-06-20T20:30:42.985Z,23.00
2018-06-20T20:31:42.955Z,22.99
2018-06-20T20:32:42.935Z,22.99
2018-06-20T20:33:42.891Z,22.99
2018-06-20T20:34:42.890Z,23.02
2018-06-20T20:35:42.829Z,23.00
2018-06-20T20:36:42.807Z,22.99
2018-06-20T20:37:42.773Z,22.91
2018-06-20T20:38:42.745Z,22.98
2018-06-20T20:39:42.709Z,22.96
2018-06-20T20:40:42.685Z,22.96
2018-06-20T20:41:42.651Z,22.96
2018-06-20T20:42:42.632Z,22.96
2018-06-20T20:43:42.620Z,22.93
2018-06-20T20:44:42.569Z,22.91
2018-06-20T20:45:42.534Z,22.84
2018-06-20T20:46:42.504Z,22.85
2018-06-20T20:47:42.472Z,22.69
2018-06-20T20:48:42.442Z,22.68
2018-06-20T20:49:42.420Z,22.63
2018-06-20T20:50:42.382Z,22.53
2018-06-20T20:51:42.363Z,22.55
2018-06-20T20:52:42.329Z,22.47
2018-06-20T20:53:42.292Z,22.47
2018-06-20T20:54:42.264Z,22.48
2018-06-20T20:55:42.227Z,22.48
2018-06-20T20:56:42.311Z,22.45
2018-06-20T20:57:42.172Z,22.44
2018-06-20T20:58:42.133Z,22.47
2018-06-20T20:59:42.158Z,22.45
2018-06-20T21:00:42.076Z,22.51
2018-06-20T21:01:42.043Z,22.44
2018-06-20T21:02:42.023Z,22.54
2018-06-20T21:03:41.994Z,22.50
2018-06-20T21:04:41.964Z,22.47
2018-06-20T21:05:41.963Z,22.55
2018-06-20T21:06:41.895Z,22.48
2018-06-20T21:07:41.873Z,22.55
2018-06-20T21:08:41.841Z,22.41
2018-06-20T21:09:41.807Z,22.43
2018-06-20T21:10:41.780Z,22.38
2018-06-20T21:11:41.798Z,22.44
2018-06-20T21:12:41.719Z,22.43
2018-06-20T21:13:41.688Z,22.35
2018-06-20T21:14:41.660Z,22.30
2018-06-20T21:15:41.629Z,22.32
2018-06-20T21:16:41.600Z,22.25
2018-06-20T21:17:41.567Z,22.33
2018-06-20T21:18:41.537Z,22.32
2018-06-20T21:19:41.507Z,22.38
2018-06-20T21:20:41.485Z,22.54
2018-06-20T21:21:41.461Z,22.59
2018-06-20T21:22:41.416Z,22.66
2018-06-20T21:23:41.398Z,22.51
2018-06-20T21:24:41.354Z,22.54
2018-06-20T21:25:41.326Z,22.44
2018-06-20T21:26:41.295Z,22.45
2018-06-20T21:27:41.325Z,22.43
2018-06-20T21:28:41.242Z,22.47
2018-06-20T21:29:41.203Z,22.39
2018-06-20T21:30:41.166Z,22.44
2018-06-20T21:31:41.138Z,22.26
2018-06-20T21:32:41.116Z,22.29
2018-06-20T21:33:41.231Z,22.29
2018-06-20T21:34:41.053Z,22.14
2018-06-20T21:35:41.024Z,22.18
2018-06-20T21:36:40.990Z,22.30
2018-06-20T21:37:40.969Z,22.11
2018-06-20T21:38:40.930Z,22.14
2018-06-20T21:39:40.904Z,22.10
2018-06-20T21:40:40.871Z,22.23
2018-06-20T21:41:40.839Z,22.23
2018-06-20T21:42:40.811Z,22.17
2018-06-20T21:43:40.783Z,22.14
2018-06-20T21:44:40.748Z,22.08
2018-06-20T21:45:40.934Z,22.06
2018-06-20T21:46:40.686Z,21.96
2018-06-20T21:47:40.663Z,21.93
2018-06-20T21:48:40.676Z,21.89
2018-06-20T21:49:40.599Z,21.88
2018-06-20T21:50:40.560Z,21.70
2018-06-20T21:51:40.546Z,21.67
2018-06-20T21:52:40.506Z,21.66
2018-06-20T21:53:40.507Z,21.55
2018-06-20T21:54:40.443Z,21.61
2018-06-20T21:55:40.415Z,21.54
2018-06-20T21:56:40.384Z,21.46
2018-06-20T21:57:40.357Z,21.43
2018-06-20T21:58:40.330Z,21.52
2018-06-20T21:59:40.293Z,21.48
2018-06-20T22:00:40.260Z,21.45
2018-06-20T22:01:40.249Z,21.45
2018-06-20T22:02:40.209Z,21.32
2018-06-20T22:03:40.179Z,21.29
2018-06-20T22:04:40.418Z,21.27
2018-06-20T22:05:40.109Z,21.33
2018-06-20T22:06:40.100Z,21.24
2018-06-20T22:07:40.049Z,21.27
2018-06-20T22:08:40.033Z,21.24
2018-06-20T22:09:39.992Z,21.32
2018-06-20T22:10:39.955Z,21.14
2018-06-20T22:11:39.925Z,21.14
2018-06-20T22:12:39.893Z,21.11
2018-06-20T22:13:39.863Z,21.06
2018-06-20T22:14:39.833Z,21.03
2018-06-20T22:15:39.796Z,21.07
2018-06-20T22:16:39.784Z,21.02
2018-06-20T22:17:42.580Z,21.09
2018-06-20T22:18:39.749Z,21.06
2018-06-20T22:19:39.687Z,21.02
2018-06-20T22:20:39.682Z,21.03
2018-06-20T22:21:39.621Z,21.02
2018-06-20T22:22:39.587Z,20.92
2018-06-20T22:23:39.559Z,20.77
2018-06-20T22:24:39.524Z,20.84
2018-06-20T22:25:39.541Z,20.81
2018-06-20T22:26:39.468Z,20.80
2018-06-20T22:27:39.439Z,20.65
2018-06-20T22:28:39.402Z,20.65
2018-06-20T22:29:39.382Z,20.65
2018-06-20T22:30:39.341Z,20.66
2018-06-20T22:31:39.310Z,20.65
2018-06-20T22:32:39.292Z,20.58
2018-06-20T22:33:39.269Z,20.62
2018-06-20T22:34:39.219Z,20.60
2018-06-20T22:35:39.192Z,20.56
2018-06-20T22:36:39.173Z,20.47
2018-06-20T22:37:40.008Z,20.47
2018-06-20T22:38:39.103Z,20.47
2018-06-20T22:39:40.506Z,20.52
2018-06-20T22:40:39.055Z,20.47
2018-06-20T22:41:39.003Z,20.50
2018-06-20T22:42:38.970Z,20.43
2018-06-20T22:43:38.944Z,20.55
2018-06-20T22:44:38.910Z,20.52
2018-06-20T22:45:38.875Z,20.52
2018-06-20T22:46:38.849Z,20.52
2018-06-20T22:47:38.819Z,20.58
2018-06-20T22:48:38.805Z,20.52
2018-06-20T22:49:38.780Z,20.51
2018-06-20T22:50:38.723Z,20.59
2018-06-20T22:51:38.695Z,20.48
2018-06-20T22:52:38.662Z,20.48
2018-06-20T22:53:38.640Z,20.47
2018-06-20T22:54:38.611Z,20.34
2018-06-20T22:55:38.595Z,20.37
2018-06-20T22:56:38.539Z,20.34
2018-06-20T22:57:38.537Z,20.31
2018-06-20T22:58:38.476Z,20.22
2018-06-20T22:59:38.461Z,20.21
2018-06-20T23:00:38.415Z,20.24
2018-06-20T23:01:38.384Z,20.21
2018-06-20T23:02:38.364Z,20.14
2018-06-20T23:03:38.324Z,20.09
2018-06-20T23:04:38.304Z,20.16
2018-06-20T23:05:38.260Z,20.13
2018-06-20T23:06:38.228Z,20.16
2018-06-20T23:07:38.197Z,20.06
2018-06-20T23:08:38.180Z,19.99
2018-06-20T23:09:38.181Z,20.00
2018-06-20T23:10:38.125Z,20.02
2018-06-20T23:11:38.088Z,20.06
2018-06-20T23:12:38.042Z,19.95
2018-06-20T23:13:38.012Z,19.94
2018-06-20T23:14:37.985Z,19.92
2018-06-20T23:15:37.947Z,19.84
2018-06-20T23:16:37.919Z,19.82
2018-06-20T23:17:37.889Z,19.86
2018-06-20T23:18:37.858Z,19.85
2018-06-20T23:19:37.827Z,19.79
2018-06-20T23:20:37.795Z,19.79
2018-06-20T23:21:37.761Z,19.77
2018-06-20T23:22:37.735Z,19.74
2018-06-20T23:23:37.724Z,19.77
2018-06-20T23:24:37.672Z,19.76
2018-06-20T23:25:37.635Z,19.76
2018-06-20T23:26:37.615Z,19.73
2018-06-20T23:27:37.576Z,19.71
2018-06-20T23:28:37.552Z,19.73
2018-06-20T23:29:37.511Z,19.74
2018-06-20T23:30:37.485Z,19.73
2018-06-20T23:31:37.458Z,19.70
2018-06-20T23:32:37.423Z,19.59
2018-06-20T23:33:37.388Z,19.58
2018-06-20T23:34:37.388Z,19.58
2018-06-20T23:35:37.327Z,19.62
2018-06-20T23:36:37.295Z,19.58
2018-06-20T23:37:37.263Z,19.67
2018-06-20T23:38:37.231Z,19.67
2018-06-20T23:39:37.213Z,19.67
2018-06-20T23:40:37.178Z,19.58
2018-06-20T23:41:37.141Z,19.58
2018-06-20T23:42:37.129Z,19.59
2018-06-20T23:43:37.079Z,19.51
2018-06-20T23:44:37.048Z,19.49
2018-06-20T23:45:37.015Z,19.45
2018-06-20T23:46:36.986Z,19.40
2018-06-20T23:47:36.955Z,19.36
2018-06-20T23:48:36.936Z,19.36
2018-06-20T23:49:36.905Z,19.36
2018-06-20T23:50:36.863Z,19.37
2018-06-20T23:51:36.827Z,19.33
2018-06-20T23:52:36.797Z,19.36
2018-06-20T23:53:36.782Z,19.39
2018-06-20T23:54:36.737Z,19.47
2018-06-20T23:55:36.712Z,19.41
2018-06-20T23:56:36.668Z,19.40
2018-06-20T23:57:36.638Z,19.34
2018-06-20T23:58:36.620Z,19.30
2018-06-20T23:59:36.571Z,19.31
